createdAt,value
2022-12-27T00:00:57.910Z,96.80
2022-12-27T00:03:25.966Z,97.38
2022-12-27T00:05:53.824Z,96.34
2022-12-27T00:08:21.672Z,96.96
2022-12-27T00:10:49.616Z,97.07
2022-12-27T00:13:17.542Z,97.20
2022-12-27T00:15:45.430Z,96.74
2022-12-27T00:18:14.622Z,97.51
2022-12-27T00:20:42.411Z,97.58
2022-12-27T00:23:10.212Z,96.94
2022-12-27T00:25:38.072Z,97.52
2022-12-27T00:28:06.040Z,97.73
2022-12-27T00:30:33.959Z,97.73
2022-12-27T00:33:02.080Z,97.57
2022-12-27T00:35:31.323Z,97.31
2022-12-27T00:37:59.419Z,97.98
2022-12-27T00:40:27.254Z,98.23
2022-12-27T00:42:55.040Z,98.17
2022-12-27T00:45:22.893Z,99.18
2022-12-27T00:47:50.880Z,98.11
2022-12-27T00:50:19.046Z,98.84
2022-12-27T00:52:48.249Z,98.99
2022-12-27T00:55:16.469Z,98.76
2022-12-27T00:57:44.377Z,98.07
2022-12-27T01:00:13.443Z,98.88
2022-12-27T01:02:41.464Z,98.49
2022-12-27T01:05:09.581Z,98.08
2022-12-27T01:07:37.460Z,99.08
2022-12-27T01:10:07.564Z,98.93
2022-12-27T01:12:36.676Z,99.34
2022-12-27T01:15:05.441Z,99.34
2022-12-27T01:17:33.347Z,98.48
2022-12-27T01:20:01.371Z,99.10
2022-12-27T01:22:29.231Z,99.62
2022-12-27T01:24:57.139Z,99.10
2022-12-27T01:27:26.355Z,99.68
2022-12-27T01:29:54.229Z,99.97
2022-12-27T01:32:22.055Z,100.00
2022-12-27T01:34:51.029Z,99.62
2022-12-27T01:37:18.960Z,99.19
2022-12-27T01:39:46.734Z,100.00
2022-12-27T01:42:35.481Z,99.94
2022-12-27T01:45:10.801Z,100.00
2022-12-27T01:47:49.421Z,100.00
2022-12-27T01:50:22.915Z,100.00
2022-12-27T01:52:56.571Z,100.00
2022-12-27T01:55:30.462Z,100.00
2022-12-27T01:58:02.787Z,100.00
2022-12-27T02:00:32.896Z,100.00
2022-12-27T02:03:05.179Z,100.00
2022-12-27T02:05:34.228Z,100.00
2022-12-27T02:08:18.486Z,100.00
2022-12-27T02:10:47.494Z,100.00
2022-12-27T02:13:16.476Z,100.00
2022-12-27T02:15:45.765Z,100.00
2022-12-27T02:18:13.830Z,100.00
2022-12-27T02:20:59.811Z,100.00
2022-12-27T02:24:03.681Z,100.00
2022-12-27T02:26:55.074Z,100.00
2022-12-27T02:29:37.184Z,100.00
2022-12-27T02:32:08.364Z,100.00
2022-12-27T02:34:44.307Z,100.00
2022-12-27T02:37:14.396Z,100.00
2022-12-27T02:39:45.767Z,100.00
2022-12-27T02:42:33.491Z,100.00
2022-12-27T02:45:21.140Z,100.00
2022-12-27T02:48:07.423Z,100.00
2022-12-27T02:51:10.167Z,100.00
2022-12-27T02:53:52.704Z,100.00
2022-12-27T02:56:52.296Z,100.00
2022-12-27T02:59:33.016Z,100.00
2022-12-27T03:02:45.181Z,100.00
2022-12-27T03:05:23.466Z,100.00
2022-12-27T03:08:01.056Z,100.00
2022-12-27T03:10:52.778Z,100.00
2022-12-27T03:13:45.940Z,100.00
2022-12-27T03:16:24.041Z,100.00
2022-12-27T03:19:03.690Z,100.00
2022-12-27T03:21:52.551Z,100.00
2022-12-27T03:24:42.458Z,100.00
2022-12-27T03:27:18.411Z,100.00
2022-12-27T03:30:11.152Z,100.00
2022-12-27T03:33:03.014Z,100.00
2022-12-27T03:35:36.506Z,100.00
2022-12-27T03:38:05.626Z,100.00
2022-12-27T03:41:10.443Z,100.00
2022-12-27T03:43:39.327Z,100.00
2022-12-27T03:46:39.040Z,100.00
2022-12-27T03:49:22.458Z,100.00
2022-12-27T03:51:57.827Z,100.00
2022-12-27T03:54:29.116Z,100.00
2022-12-27T03:56:58.663Z,100.00
2022-12-27T03:59:26.878Z,100.00
2022-12-27T04:01:55.048Z,100.00
2022-12-27T04:04:23.045Z,100.00
2022-12-27T04:06:52.515Z,100.00
2022-12-27T04:09:37.741Z,100.00
2022-12-27T04:12:23.780Z,100.00
2022-12-27T04:15:09.056Z,100.00
2022-12-27T04:17:54.493Z,100.00
2022-12-27T04:20:39.983Z,100.00
2022-12-27T04:23:26.854Z,100.00
2022-12-27T04:26:12.454Z,100.00
2022-12-27T04:28:57.895Z,100.00
2022-12-27T04:31:43.481Z,100.00
2022-12-27T04:34:28.802Z,100.00
2022-12-27T04:36:56.783Z,100.00
2022-12-27T04:39:25.991Z,100.00
2022-12-27T04:42:11.277Z,100.00
2022-12-27T04:44:59.076Z,100.00
2022-12-27T04:47:44.980Z,100.00
2022-12-27T04:50:43.027Z,100.00
2022-12-27T04:53:30.497Z,100.00
2022-12-27T04:55:59.918Z,100.00
2022-12-27T04:58:28.058Z,100.00
2022-12-27T05:01:14.711Z,100.00
2022-12-27T05:03:43.161Z,100.00
2022-12-27T05:06:11.255Z,100.00
2022-12-27T05:08:56.748Z,100.00
2022-12-27T05:11:44.429Z,100.00
2022-12-27T05:14:15.316Z,100.00
2022-12-27T05:16:45.046Z,100.00
2022-12-27T05:19:14.372Z,100.00
2022-12-27T05:22:04.873Z,100.00
2022-12-27T05:24:51.176Z,100.00
2022-12-27T05:27:20.389Z,100.00
2022-12-27T05:29:48.320Z,100.00
2022-12-27T05:32:16.189Z,100.00
2022-12-27T05:34:44.115Z,100.00
2022-12-27T05:37:11.996Z,100.00
2022-12-27T05:39:39.992Z,100.00
2022-12-27T05:42:07.893Z,100.00
2022-12-27T05:44:37.147Z,100.00
2022-12-27T05:47:05.092Z,100.00
2022-12-27T05:49:32.960Z,100.00
2022-12-27T05:52:01.245Z,100.00
2022-12-27T05:54:29.041Z,100.00
2022-12-27T05:56:57.284Z,100.00
2022-12-27T05:59:25.121Z,100.00
2022-12-27T06:01:54.610Z,100.00
2022-12-27T06:04:22.527Z,100.00
2022-12-27T06:06:50.410Z,100.00
2022-12-27T06:09:18.182Z,100.00
2022-12-27T06:11:46.069Z,100.00
2022-12-27T06:14:14.284Z,100.00
2022-12-27T06:16:42.342Z,100.00
2022-12-27T06:19:11.850Z,100.00
2022-12-27T06:21:39.794Z,100.00
2022-12-27T06:24:08.243Z,100.00
2022-12-27T06:26:36.013Z,100.00
2022-12-27T06:29:04.142Z,100.00
2022-12-27T06:31:32.636Z,100.00
2022-12-27T06:34:00.479Z,100.00
2022-12-27T06:36:30.337Z,100.00
2022-12-27T06:38:58.570Z,100.00
2022-12-27T06:41:27.013Z,100.00
2022-12-27T06:43:56.469Z,100.00
2022-12-27T06:46:25.390Z,100.00
2022-12-27T06:48:53.503Z,100.00
2022-12-27T06:51:22.403Z,100.00
2022-12-27T06:53:51.646Z,100.00
2022-12-27T06:56:21.426Z,100.00
2022-12-27T06:58:51.149Z,100.00
2022-12-27T07:01:21.930Z,100.00
2022-12-27T07:03:51.372Z,100.00
2022-12-27T07:06:19.908Z,100.00
2022-12-27T07:08:47.850Z,100.00
2022-12-27T07:11:18.225Z,100.00
2022-12-27T07:13:48.338Z,100.00
2022-12-27T07:16:20.552Z,100.00
2022-12-27T07:18:50.121Z,100.00
2022-12-27T07:21:20.418Z,100.00
2022-12-27T07:23:48.776Z,100.00
2022-12-27T07:26:20.653Z,100.00
2022-12-27T07:28:48.637Z,100.00
2022-12-27T07:31:20.125Z,100.00
2022-12-27T07:33:48.170Z,100.00
2022-12-27T07:36:18.640Z,100.00
2022-12-27T07:38:46.687Z,100.00
2022-12-27T07:41:14.974Z,100.00
2022-12-27T07:43:44.379Z,100.00
2022-12-27T07:46:14.420Z,100.00
2022-12-27T07:48:42.860Z,100.00
2022-12-27T07:51:11.177Z,100.00
2022-12-27T07:53:39.664Z,100.00
2022-12-27T07:56:09.320Z,100.00
2022-12-27T07:58:38.874Z,100.00
2022-12-27T08:01:08.610Z,100.00
2022-12-27T08:03:37.017Z,100.00
2022-12-27T08:06:05.849Z,100.00
2022-12-27T08:08:38.219Z,100.00
2022-12-27T08:11:06.931Z,100.00
2022-12-27T08:13:35.239Z,100.00
2022-12-27T08:16:04.037Z,100.00
2022-12-27T08:18:33.518Z,100.00
2022-12-27T08:21:01.390Z,100.00
2022-12-27T08:23:29.392Z,100.00
2022-12-27T08:25:57.316Z,100.00
2022-12-27T08:28:25.318Z,100.00
2022-12-27T08:30:53.444Z,100.00
2022-12-27T08:33:21.372Z,100.00
2022-12-27T08:35:53.280Z,100.00
2022-12-27T08:38:22.146Z,100.00
2022-12-27T08:40:50.070Z,100.00
2022-12-27T08:43:17.954Z,100.00
2022-12-27T08:45:46.447Z,100.00
2022-12-27T08:48:14.523Z,100.00
2022-12-27T08:50:42.392Z,100.00
2022-12-27T08:53:12.475Z,100.00
2022-12-27T08:55:40.381Z,100.00
2022-12-27T08:58:15.749Z,100.00
2022-12-27T09:00:44.579Z,100.00
2022-12-27T09:03:12.516Z,100.00
2022-12-27T09:05:42.165Z,100.00
2022-12-27T09:08:12.235Z,100.00
2022-12-27T09:10:40.505Z,100.00
2022-12-27T09:13:08.393Z,100.00
2022-12-27T09:15:36.414Z,100.00
2022-12-27T09:18:04.525Z,100.00
2022-12-27T09:20:32.411Z,100.00
2022-12-27T09:23:00.779Z,100.00
2022-12-27T09:25:30.060Z,100.00
2022-12-27T09:27:57.984Z,100.00
2022-12-27T09:30:25.823Z,100.00
2022-12-27T09:32:53.614Z,100.00
2022-12-27T09:35:21.444Z,100.00
2022-12-27T09:37:49.177Z,100.00
2022-12-27T09:40:21.530Z,100.00
2022-12-27T09:43:11.801Z,100.00
2022-12-27T09:45:49.277Z,100.00
2022-12-27T09:48:27.719Z,100.00
2022-12-27T09:51:04.608Z,100.00
2022-12-27T09:53:41.068Z,100.00
2022-12-27T09:56:13.718Z,100.00
2022-12-27T09:58:48.899Z,100.00
2022-12-27T10:01:25.620Z,100.00
2022-12-27T10:03:56.931Z,100.00
2022-12-27T10:06:37.755Z,100.00
2022-12-27T10:09:21.856Z,100.00
2022-12-27T10:11:59.737Z,100.00
2022-12-27T10:14:44.407Z,100.00
2022-12-27T10:17:21.174Z,100.00
2022-12-27T10:19:55.048Z,100.00
2022-12-27T10:22:32.601Z,100.00
2022-12-27T10:25:04.066Z,100.00
2022-12-27T10:27:32.709Z,100.00
2022-12-27T10:30:04.145Z,100.00
2022-12-27T10:32:32.090Z,100.00
2022-12-27T10:35:03.106Z,100.00
2022-12-27T10:37:31.024Z,100.00
2022-12-27T10:40:10.424Z,100.00
2022-12-27T10:42:41.781Z,100.00
2022-12-27T10:45:34.865Z,100.00
2022-12-27T10:48:17.960Z,100.00
2022-12-27T10:50:48.468Z,100.00
2022-12-27T10:53:29.828Z,100.00
2022-12-27T10:56:12.165Z,100.00
2022-12-27T10:58:42.129Z,100.00
2022-12-27T11:01:19.076Z,100.00
2022-12-27T11:03:47.284Z,100.00
2022-12-27T11:06:22.142Z,100.00
2022-12-27T11:08:50.789Z,100.00
2022-12-27T11:11:22.601Z,100.00
2022-12-27T11:13:51.210Z,100.00
2022-12-27T11:16:29.170Z,100.00
2022-12-27T11:19:00.576Z,100.00
2022-12-27T11:21:30.779Z,100.00
2022-12-27T11:24:02.259Z,100.00
2022-12-27T11:26:34.404Z,100.00
2022-12-27T11:29:04.104Z,100.00
2022-12-27T11:31:39.373Z,100.00
2022-12-27T11:34:15.124Z,100.00
2022-12-27T11:36:47.132Z,100.00
2022-12-27T11:39:47.574Z,100.00
2022-12-27T11:42:23.011Z,100.00
2022-12-27T11:45:04.448Z,100.00
2022-12-27T11:47:42.369Z,100.00
2022-12-27T11:50:26.167Z,100.00
2022-12-27T11:53:36.283Z,100.00
2022-12-27T11:56:20.450Z,100.00
2022-12-27T11:59:17.470Z,100.00
2022-12-27T12:02:08.145Z,100.00
2022-12-27T12:05:12.102Z,100.00
2022-12-27T12:08:00.595Z,100.00
2022-12-27T12:10:43.163Z,100.00
2022-12-27T12:13:46.688Z,100.00
2022-12-27T12:16:40.766Z,100.00
2022-12-27T12:19:35.754Z,100.00
2022-12-27T12:22:22.065Z,100.00
2022-12-27T12:25:08.953Z,100.00
2022-12-27T12:27:48.763Z,100.00
2022-12-27T12:30:46.179Z,100.00
2022-12-27T12:33:39.559Z,100.00
2022-12-27T12:36:26.582Z,100.00
2022-12-27T12:39:02.837Z,100.00
2022-12-27T12:41:53.745Z,100.00
2022-12-27T12:44:52.727Z,100.00
2022-12-27T12:47:40.854Z,100.00
2022-12-27T12:50:25.538Z,100.00
2022-12-27T12:53:18.444Z,100.00
2022-12-27T12:55:58.845Z,100.00
2022-12-27T12:59:04.320Z,100.00
2022-12-27T13:01:50.652Z,100.00
2022-12-27T13:04:34.429Z,100.00
2022-12-27T13:07:39.214Z,100.00
2022-12-27T13:10:49.851Z,100.00
2022-12-27T13:13:25.217Z,100.00
2022-12-27T13:16:12.204Z,100.00
2022-12-27T13:18:50.296Z,100.00
2022-12-27T13:21:28.266Z,100.00
2022-12-27T13:24:07.749Z,100.00
2022-12-27T13:26:44.609Z,100.00
2022-12-27T13:29:30.923Z,100.00
2022-12-27T13:32:10.885Z,100.00
2022-12-27T13:34:51.032Z,100.00
2022-12-27T13:37:30.570Z,100.00
2022-12-27T13:40:32.484Z,100.00
2022-12-27T13:43:13.483Z,100.00
2022-12-27T13:45:55.634Z,100.00
2022-12-27T13:48:49.110Z,100.00
2022-12-27T13:51:36.380Z,100.00
2022-12-27T13:54:46.080Z,100.00
2022-12-27T13:57:56.109Z,100.00
2022-12-27T14:00:25.472Z,100.00
2022-12-27T14:03:37.179Z,100.00
2022-12-27T14:06:45.162Z,100.00
2022-12-27T14:09:40.358Z,100.00
2022-12-27T14:12:36.606Z,100.00
2022-12-27T14:15:08.090Z,100.00
2022-12-27T14:17:47.647Z,100.00
2022-12-27T14:20:44.442Z,100.00
2022-12-27T14:23:32.095Z,100.00
2022-12-27T14:26:41.748Z,100.00
2022-12-27T14:29:33.288Z,100.00
2022-12-27T14:32:42.553Z,100.00
2022-12-27T14:35:30.973Z,100.00
2022-12-27T14:38:36.664Z,100.00
2022-12-27T14:41:41.576Z,100.00
2022-12-27T14:44:47.532Z,100.00
2022-12-27T14:47:49.032Z,100.00
2022-12-27T14:50:39.689Z,100.00
2022-12-27T14:53:22.660Z,100.00
2022-12-27T14:56:08.656Z,100.00
2022-12-27T14:58:49.021Z,100.00
2022-12-27T15:01:27.618Z,100.00
2022-12-27T15:04:02.568Z,100.00
2022-12-27T15:06:49.598Z,100.00
2022-12-27T15:09:30.365Z,100.00
2022-12-27T15:12:10.981Z,100.00
2022-12-27T15:14:55.211Z,100.00
2022-12-27T15:17:38.434Z,100.00
2022-12-27T15:20:27.961Z,100.00
2022-12-27T15:23:09.856Z,100.00
2022-12-27T15:25:51.225Z,100.00
2022-12-27T15:28:32.856Z,100.00
2022-12-27T15:31:07.642Z,100.00
2022-12-27T15:33:45.684Z,100.00
2022-12-27T15:36:17.116Z,100.00
2022-12-27T15:38:53.344Z,100.00
2022-12-27T15:41:59.463Z,100.00
2022-12-27T15:44:44.183Z,100.00
2022-12-27T15:47:50.643Z,100.00
2022-12-27T15:50:51.412Z,100.00
2022-12-27T15:53:38.513Z,100.00
2022-12-27T15:56:31.734Z,100.00
2022-12-27T15:59:41.380Z,99.63
2022-12-27T16:02:25.080Z,100.00
2022-12-27T16:04:56.821Z,100.00
2022-12-27T16:07:46.084Z,99.98
2022-12-27T16:10:35.166Z,99.96
2022-12-27T16:13:20.960Z,100.00
2022-12-27T16:15:55.775Z,100.00
2022-12-27T16:19:00.845Z,100.00
2022-12-27T16:21:39.575Z,100.00
2022-12-27T16:24:15.543Z,100.00
2022-12-27T16:26:59.988Z,100.00
2022-12-27T16:29:32.422Z,100.00
2022-12-27T16:32:23.387Z,99.71
2022-12-27T16:34:55.277Z,100.00
2022-12-27T16:37:29.162Z,100.00
2022-12-27T16:40:38.076Z,99.64
2022-12-27T16:43:44.178Z,99.95
2022-12-27T16:46:43.134Z,99.35
2022-12-27T16:49:36.035Z,99.50
2022-12-27T16:52:27.393Z,98.75
2022-12-27T16:55:03.517Z,99.36
2022-12-27T16:57:43.000Z,97.69
2022-12-27T17:00:39.740Z,98.01
2022-12-27T17:03:43.936Z,98.98
2022-12-27T17:07:03.512Z,98.85
2022-12-27T17:09:45.492Z,98.28
2022-12-27T17:12:20.490Z,98.41
2022-12-27T17:14:53.208Z,98.85
2022-12-27T17:17:24.354Z,97.73
2022-12-27T17:19:57.899Z,98.12
2022-12-27T17:22:32.337Z,98.52
2022-12-27T17:25:04.938Z,97.95
2022-12-27T17:27:44.892Z,98.68
2022-12-27T17:30:18.773Z,98.80
2022-12-27T17:33:13.883Z,98.05
2022-12-27T17:36:05.697Z,98.62
2022-12-27T17:38:42.357Z,98.26
2022-12-27T17:41:40.054Z,97.46
2022-12-27T17:44:35.632Z,97.55
2022-12-27T17:47:16.132Z,97.71
2022-12-27T17:49:44.384Z,98.02
2022-12-27T17:52:35.995Z,97.06
2022-12-27T17:55:37.027Z,97.46
2022-12-27T17:58:10.011Z,97.86
2022-12-27T18:00:44.889Z,98.21
2022-12-27T18:03:15.182Z,97.13
2022-12-27T18:05:45.385Z,98.55
2022-12-27T18:08:23.550Z,97.49
2022-12-27T18:10:51.902Z,97.70
2022-12-27T18:13:25.696Z,97.90
2022-12-27T18:15:54.503Z,97.68
2022-12-27T18:18:27.791Z,98.12
2022-12-27T18:20:59.510Z,97.84
2022-12-27T18:23:28.275Z,96.96
2022-12-27T18:26:07.893Z,97.64
2022-12-27T18:28:42.521Z,97.38
2022-12-27T18:31:15.760Z,96.96
2022-12-27T18:33:46.335Z,96.85
2022-12-27T18:36:21.375Z,97.25
2022-12-27T18:38:56.786Z,97.25
2022-12-27T18:41:25.872Z,97.89
2022-12-27T18:44:01.128Z,97.40
2022-12-27T18:46:32.358Z,97.25
2022-12-27T18:49:01.211Z,97.43
2022-12-27T18:51:33.843Z,97.06
2022-12-27T18:54:02.326Z,96.93
2022-12-27T18:56:32.846Z,97.42
2022-12-27T18:59:06.521Z,97.61
2022-12-27T19:01:41.286Z,96.78
2022-12-27T19:04:27.714Z,97.15
2022-12-27T19:06:59.658Z,97.11
2022-12-27T19:09:32.175Z,97.45
2022-12-27T19:12:04.350Z,97.33
2022-12-27T19:14:38.542Z,97.54
2022-12-27T19:17:10.921Z,97.19
2022-12-27T19:19:39.651Z,98.08
2022-12-27T19:22:34.506Z,97.78
2022-12-27T19:25:05.755Z,97.76
2022-12-27T19:27:34.349Z,97.73
2022-12-27T19:30:03.663Z,97.44
2022-12-27T19:32:35.615Z,97.97
2022-12-27T19:35:05.098Z,97.71
2022-12-27T19:37:35.692Z,97.25
2022-12-27T19:40:03.854Z,97.21
2022-12-27T19:42:34.905Z,97.10
2022-12-27T19:45:04.780Z,97.41
2022-12-27T19:47:34.836Z,96.77
2022-12-27T19:50:02.869Z,96.81
2022-12-27T19:52:30.920Z,96.58
2022-12-27T19:55:03.071Z,96.95
2022-12-27T19:57:30.937Z,96.64
2022-12-27T19:59:59.201Z,96.68
2022-12-27T20:02:28.845Z,96.66
2022-12-27T20:04:56.808Z,97.35
2022-12-27T20:07:26.524Z,96.83
2022-12-27T20:09:54.605Z,97.50
2022-12-27T20:12:22.777Z,97.85
2022-12-27T20:14:50.640Z,97.09
2022-12-27T20:17:18.504Z,97.55
2022-12-27T20:19:47.988Z,97.26
2022-12-27T20:22:15.900Z,97.98
2022-12-27T20:24:43.780Z,97.27
2022-12-27T20:27:11.698Z,97.10
2022-12-27T20:29:39.935Z,96.75
2022-12-27T20:32:07.923Z,96.98
2022-12-27T20:34:35.980Z,96.75
2022-12-27T20:37:05.281Z,96.53
2022-12-27T20:39:33.248Z,97.21
2022-12-27T20:42:01.873Z,97.17
2022-12-27T20:44:29.878Z,96.93
2022-12-27T20:46:57.719Z,97.33
2022-12-27T20:49:25.927Z,97.79
2022-12-27T20:51:53.742Z,97.63
2022-12-27T20:54:23.037Z,97.24
2022-12-27T20:56:50.837Z,97.10
2022-12-27T20:59:19.093Z,96.99
2022-12-27T21:01:50.429Z,97.81
2022-12-27T21:04:21.258Z,97.10
2022-12-27T21:06:49.090Z,96.72
2022-12-27T21:09:16.993Z,96.81
2022-12-27T21:11:46.561Z,97.50
2022-12-27T21:14:14.676Z,96.96
2022-12-27T21:16:42.774Z,97.19
2022-12-27T21:19:10.888Z,96.99
2022-12-27T21:21:39.945Z,97.03
2022-12-27T21:24:10.810Z,97.26
2022-12-27T21:26:40.102Z,96.69
2022-12-27T21:29:12.252Z,96.30
2022-12-27T21:31:40.363Z,97.46
2022-12-27T21:34:08.486Z,97.52
2022-12-27T21:36:38.451Z,97.71
2022-12-27T21:39:07.554Z,97.06
2022-12-27T21:41:37.057Z,96.58
2022-12-27T21:44:07.043Z,96.83
2022-12-27T21:46:38.967Z,96.95
2022-12-27T21:49:08.815Z,96.69
2022-12-27T21:51:38.766Z,96.61
2022-12-27T21:54:07.810Z,96.65
2022-12-27T21:56:35.745Z,96.58
2022-12-27T21:59:07.266Z,97.19
2022-12-27T22:01:51.941Z,97.27
2022-12-27T22:04:21.376Z,96.86
2022-12-27T22:06:49.585Z,97.24
2022-12-27T22:09:19.161Z,97.34
2022-12-27T22:11:47.437Z,96.79
2022-12-27T22:14:15.384Z,97.21
2022-12-27T22:16:45.089Z,96.21
2022-12-27T22:19:14.593Z,97.17
2022-12-27T22:21:44.685Z,96.32
2022-12-27T22:24:18.560Z,96.63
2022-12-27T22:26:48.603Z,96.43
2022-12-27T22:29:17.389Z,95.75
2022-12-27T22:31:46.624Z,96.45
2022-12-27T22:34:14.582Z,96.06
2022-12-27T22:36:42.485Z,96.02
2022-12-27T22:39:10.787Z,96.28
2022-12-27T22:41:38.926Z,96.89
2022-12-27T22:44:09.465Z,97.10
2022-12-27T22:49:26.754Z,96.37
2022-12-27T22:51:54.606Z,97.11
2022-12-27T22:55:05.880Z,96.52
2022-12-27T22:57:10.446Z,97.03
2022-12-27T22:59:38.349Z,96.98
2022-12-27T23:02:06.559Z,96.27
2022-12-27T23:04:35.979Z,96.32
2022-12-27T23:07:03.789Z,96.83
2022-12-27T23:09:31.703Z,97.47
2022-12-27T23:11:59.603Z,97.28
2022-12-27T23:14:27.589Z,96.88
2022-12-27T23:16:55.585Z,96.38
2022-12-27T23:19:24.500Z,96.38
2022-12-27T23:21:53.688Z,96.95
2022-12-27T23:24:21.663Z,96.11
2022-12-27T23:26:49.590Z,96.52
2022-12-27T23:29:17.444Z,96.56
2022-12-27T23:31:54.622Z,96.62
2022-12-27T23:34:28.247Z,96.67
2022-12-27T23:36:59.057Z,97.06
2022-12-27T23:39:27.271Z,96.77
2022-12-27T23:41:55.549Z,97.67
2022-12-27T23:44:33.814Z,97.23
2022-12-27T23:47:03.918Z,96.94
2022-12-27T23:49:31.880Z,96.83
2022-12-27T23:52:01.123Z,96.90
2022-12-27T23:54:28.884Z,96.56
2022-12-27T23:56:56.715Z,96.51
2022-12-27T23:59:24.819Z,96.22
